sensor_id;sensor_type;location;lat;lon;timestamp;P1;durP1;ratioP1;P2;durP2;ratioP2
48317;SDS011;34127;47.412;9.730;2023-08-21T00:00:11;8.65;;;5.78;;
48317;SDS011;34127;47.412;9.730;2023-08-21T00:02:38;11.15;;;5.82;;
48317;SDS011;34127;47.412;9.730;2023-08-21T00:05:05;9.98;;;5.82;;
48317;SDS011;34127;47.412;9.730;2023-08-21T00:07:32;10.65;;;5.97;;
48317;SDS011;34127;47.412;9.730;2023-08-21T00:10:01;9.32;;;6.03;;
48317;SDS011;34127;47.412;9.730;2023-08-21T00:12:27;9.00;;;6.13;;
48317;SDS011;34127;47.412;9.730;2023-08-21T00:14:53;8.88;;;5.60;;
48317;SDS011;34127;47.412;9.730;2023-08-21T00:17:19;9.38;;;5.88;;
48317;SDS011;34127;47.412;9.730;2023-08-21T00:19:46;10.27;;;5.88;;
48317;SDS011;34127;47.412;9.730;2023-08-21T00:22:12;8.25;;;5.95;;
48317;SDS011;34127;47.412;9.730;2023-08-21T00:24:38;10.52;;;6.63;;
48317;SDS011;34127;47.412;9.730;2023-08-21T00:27:04;8.88;;;5.40;;
48317;SDS011;34127;47.412;9.730;2023-08-21T00:29:30;9.93;;;5.95;;
48317;SDS011;34127;47.412;9.730;2023-08-21T00:31:56;8.52;;;6.22;;
48317;SDS011;34127;47.412;9.730;2023-08-21T00:34:22;11.32;;;6.60;;
48317;SDS011;34127;47.412;9.730;2023-08-21T00:36:49;9.52;;;6.38;;
48317;SDS011;34127;47.412;9.730;2023-08-21T00:39:15;10.95;;;6.15;;
48317;SDS011;34127;47.412;9.730;2023-08-21T00:41:41;8.32;;;5.90;;
48317;SDS011;34127;47.412;9.730;2023-08-21T00:44:07;10.20;;;6.35;;
48317;SDS011;34127;47.412;9.730;2023-08-21T00:46:34;10.90;;;6.30;;
48317;SDS011;34127;47.412;9.730;2023-08-21T00:49:00;10.80;;;6.43;;
48317;SDS011;34127;47.412;9.730;2023-08-21T00:51:27;9.15;;;6.65;;
48317;SDS011;34127;47.412;9.730;2023-08-21T00:53:54;13.23;;;6.57;;
48317;SDS011;34127;47.412;9.730;2023-08-21T00:56:20;10.40;;;6.57;;
48317;SDS011;34127;47.412;9.730;2023-08-21T00:58:46;10.38;;;6.40;;
48317;SDS011;34127;47.412;9.730;2023-08-21T01:01:12;9.52;;;6.35;;
48317;SDS011;34127;47.412;9.730;2023-08-21T01:03:40;15.05;;;7.47;;
48317;SDS011;34127;47.412;9.730;2023-08-21T01:06:07;9.45;;;7.22;;
48317;SDS011;34127;47.412;9.730;2023-08-21T01:08:42;9.73;;;6.20;;
48317;SDS011;34127;47.412;9.730;2023-08-21T01:11:15;12.32;;;6.50;;
48317;SDS011;34127;47.412;9.730;2023-08-21T01:13:55;9.90;;;6.43;;
48317;SDS011;34127;47.412;9.730;2023-08-21T01:16:22;8.90;;;6.78;;
48317;SDS011;34127;47.412;9.730;2023-08-21T01:18:50;9.60;;;6.82;;
48317;SDS011;34127;47.412;9.730;2023-08-21T01:21:18;11.70;;;6.50;;
48317;SDS011;34127;47.412;9.730;2023-08-21T01:23:44;10.80;;;6.60;;
48317;SDS011;34127;47.412;9.730;2023-08-21T01:26:11;13.13;;;6.95;;
48317;SDS011;34127;47.412;9.730;2023-08-21T01:28:37;13.23;;;6.43;;
48317;SDS011;34127;47.412;9.730;2023-08-21T01:33:44;8.40;;;6.53;;
48317;SDS011;34127;47.412;9.730;2023-08-21T01:36:15;9.13;;;5.93;;
48317;SDS011;34127;47.412;9.730;2023-08-21T01:38:41;10.43;;;5.97;;
48317;SDS011;34127;47.412;9.730;2023-08-21T01:41:08;13.52;;;7.20;;
48317;SDS011;34127;47.412;9.730;2023-08-21T01:43:34;9.35;;;6.38;;
48317;SDS011;34127;47.412;9.730;2023-08-21T01:46:01;15.15;;;6.72;;
48317;SDS011;34127;47.412;9.730;2023-08-21T01:48:28;9.88;;;5.95;;
48317;SDS011;34127;47.412;9.730;2023-08-21T01:50:54;8.15;;;6.60;;
48317;SDS011;34127;47.412;9.730;2023-08-21T01:53:20;14.35;;;6.53;;
48317;SDS011;34127;47.412;9.730;2023-08-21T01:55:46;11.55;;;7.57;;
48317;SDS011;34127;47.412;9.730;2023-08-21T01:58:13;10.30;;;6.80;;
48317;SDS011;34127;47.412;9.730;2023-08-21T02:00:39;10.73;;;6.05;;
48317;SDS011;34127;47.412;9.730;2023-08-21T02:03:05;14.10;;;7.93;;
48317;SDS011;34127;47.412;9.730;2023-08-21T02:05:36;7.80;;;5.78;;
48317;SDS011;34127;47.412;9.730;2023-08-21T02:08:04;8.95;;;6.38;;
48317;SDS011;34127;47.412;9.730;2023-08-21T02:10:30;9.73;;;6.03;;
48317;SDS011;34127;47.412;9.730;2023-08-21T02:12:56;10.73;;;6.30;;
48317;SDS011;34127;47.412;9.730;2023-08-21T02:15:22;8.98;;;5.63;;
48317;SDS011;34127;47.412;9.730;2023-08-21T02:17:49;11.55;;;6.65;;
48317;SDS011;34127;47.412;9.730;2023-08-21T02:20:15;10.65;;;6.20;;
48317;SDS011;34127;47.412;9.730;2023-08-21T02:22:41;8.13;;;5.25;;
48317;SDS011;34127;47.412;9.730;2023-08-21T02:25:07;9.00;;;5.93;;
48317;SDS011;34127;47.412;9.730;2023-08-21T02:27:33;10.80;;;6.10;;
48317;SDS011;34127;47.412;9.730;2023-08-21T02:30:00;8.93;;;6.18;;
48317;SDS011;34127;47.412;9.730;2023-08-21T02:32:26;11.35;;;5.97;;
48317;SDS011;34127;47.412;9.730;2023-08-21T02:34:52;9.32;;;6.07;;
48317;SDS011;34127;47.412;9.730;2023-08-21T02:37:18;11.02;;;5.63;;
48317;SDS011;34127;47.412;9.730;2023-08-21T02:39:45;8.10;;;5.45;;
48317;SDS011;34127;47.412;9.730;2023-08-21T02:42:11;11.20;;;5.65;;
48317;SDS011;34127;47.412;9.730;2023-08-21T02:44:37;8.98;;;5.85;;
48317;SDS011;34127;47.412;9.730;2023-08-21T02:47:03;9.20;;;6.13;;
48317;SDS011;34127;47.412;9.730;2023-08-21T02:49:30;7.60;;;5.78;;
48317;SDS011;34127;47.412;9.730;2023-08-21T02:51:56;11.60;;;6.53;;
48317;SDS011;34127;47.412;9.730;2023-08-21T02:54:22;10.02;;;5.72;;
48317;SDS011;34127;47.412;9.730;2023-08-21T02:56:49;7.53;;;5.80;;
48317;SDS011;34127;47.412;9.730;2023-08-21T02:59:15;13.05;;;6.85;;
48317;SDS011;34127;47.412;9.730;2023-08-21T03:01:41;9.02;;;6.20;;
48317;SDS011;34127;47.412;9.730;2023-08-21T03:04:08;10.20;;;5.95;;
48317;SDS011;34127;47.412;9.730;2023-08-21T03:06:34;9.55;;;6.38;;
48317;SDS011;34127;47.412;9.730;2023-08-21T03:09:00;7.63;;;6.10;;
48317;SDS011;34127;47.412;9.730;2023-08-21T03:11:26;12.40;;;7.25;;
48317;SDS011;34127;47.412;9.730;2023-08-21T03:13:52;10.35;;;6.30;;
48317;SDS011;34127;47.412;9.730;2023-08-21T03:16:18;11.82;;;6.50;;
48317;SDS011;34127;47.412;9.730;2023-08-21T03:18:55;9.55;;;7.00;;
48317;SDS011;34127;47.412;9.730;2023-08-21T03:21:21;10.13;;;6.65;;
48317;SDS011;34127;47.412;9.730;2023-08-21T03:23:49;9.00;;;7.00;;
48317;SDS011;34127;47.412;9.730;2023-08-21T03:26:16;10.48;;;6.70;;
48317;SDS011;34127;47.412;9.730;2023-08-21T03:28:42;12.48;;;7.40;;
48317;SDS011;34127;47.412;9.730;2023-08-21T03:31:08;8.20;;;6.30;;
48317;SDS011;34127;47.412;9.730;2023-08-21T03:33:35;12.85;;;7.13;;
48317;SDS011;34127;47.412;9.730;2023-08-21T03:36:01;11.25;;;6.68;;
48317;SDS011;34127;47.412;9.730;2023-08-21T03:38:27;11.65;;;6.93;;
48317;SDS011;34127;47.412;9.730;2023-08-21T03:40:53;10.50;;;7.03;;
48317;SDS011;34127;47.412;9.730;2023-08-21T03:43:19;9.52;;;6.97;;
48317;SDS011;34127;47.412;9.730;2023-08-21T03:45:45;10.10;;;7.05;;
48317;SDS011;34127;47.412;9.730;2023-08-21T03:48:11;11.68;;;6.97;;
48317;SDS011;34127;47.412;9.730;2023-08-21T03:50:38;8.98;;;6.57;;
48317;SDS011;34127;47.412;9.730;2023-08-21T03:53:05;14.48;;;7.38;;
48317;SDS011;34127;47.412;9.730;2023-08-21T03:55:31;11.45;;;6.88;;
48317;SDS011;34127;47.412;9.730;2023-08-21T03:57:59;10.82;;;6.43;;
48317;SDS011;34127;47.412;9.730;2023-08-21T04:00:25;10.75;;;6.50;;
48317;SDS011;34127;47.412;9.730;2023-08-21T04:02:52;11.02;;;6.78;;
48317;SDS011;34127;47.412;9.730;2023-08-21T04:05:18;10.05;;;7.50;;
48317;SDS011;34127;47.412;9.730;2023-08-21T04:07:44;12.43;;;7.35;;
48317;SDS011;34127;47.412;9.730;2023-08-21T04:10:10;10.50;;;7.00;;
48317;SDS011;34127;47.412;9.730;2023-08-21T04:12:36;10.05;;;6.88;;
48317;SDS011;34127;47.412;9.730;2023-08-21T04:15:03;11.57;;;7.25;;
48317;SDS011;34127;47.412;9.730;2023-08-21T04:17:31;11.85;;;7.95;;
48317;SDS011;34127;47.412;9.730;2023-08-21T04:19:57;11.85;;;7.43;;
48317;SDS011;34127;47.412;9.730;2023-08-21T04:22:23;11.40;;;7.38;;
48317;SDS011;34127;47.412;9.730;2023-08-21T04:24:49;13.73;;;8.20;;
48317;SDS011;34127;47.412;9.730;2023-08-21T04:27:15;13.98;;;8.02;;
48317;SDS011;34127;47.412;9.730;2023-08-21T04:29:42;11.32;;;7.20;;
48317;SDS011;34127;47.412;9.730;2023-08-21T04:32:08;12.50;;;7.38;;
48317;SDS011;34127;47.412;9.730;2023-08-21T04:34:34;10.82;;;7.18;;
48317;SDS011;34127;47.412;9.730;2023-08-21T04:37:00;12.00;;;6.53;;
48317;SDS011;34127;47.412;9.730;2023-08-21T04:39:26;14.00;;;7.18;;
48317;SDS011;34127;47.412;9.730;2023-08-21T04:41:53;11.25;;;7.30;;
48317;SDS011;34127;47.412;9.730;2023-08-21T04:44:19;12.48;;;8.02;;
48317;SDS011;34127;47.412;9.730;2023-08-21T04:46:47;11.45;;;8.10;;
48317;SDS011;34127;47.412;9.730;2023-08-21T04:49:14;14.68;;;7.43;;
48317;SDS011;34127;47.412;9.730;2023-08-21T04:51:40;9.30;;;6.93;;
48317;SDS011;34127;47.412;9.730;2023-08-21T04:54:07;10.57;;;7.07;;
48317;SDS011;34127;47.412;9.730;2023-08-21T04:56:33;14.05;;;7.30;;
48317;SDS011;34127;47.412;9.730;2023-08-21T04:58:59;13.75;;;7.40;;
48317;SDS011;34127;47.412;9.730;2023-08-21T05:01:25;12.45;;;6.75;;
48317;SDS011;34127;47.412;9.730;2023-08-21T05:03:51;15.80;;;6.47;;
48317;SDS011;34127;47.412;9.730;2023-08-21T05:06:19;21.00;;;6.47;;
48317;SDS011;34127;47.412;9.730;2023-08-21T05:08:45;14.23;;;7.50;;
48317;SDS011;34127;47.412;9.730;2023-08-21T05:11:11;13.10;;;6.72;;
48317;SDS011;34127;47.412;9.730;2023-08-21T05:13:37;9.27;;;6.00;;
48317;SDS011;34127;47.412;9.730;2023-08-21T05:16:04;16.25;;;6.20;;
48317;SDS011;34127;47.412;9.730;2023-08-21T05:18:30;14.77;;;6.78;;
48317;SDS011;34127;47.412;9.730;2023-08-21T05:20:57;13.98;;;6.45;;
48317;SDS011;34127;47.412;9.730;2023-08-21T05:23:23;11.57;;;6.88;;
48317;SDS011;34127;47.412;9.730;2023-08-21T05:25:49;13.75;;;6.63;;
48317;SDS011;34127;47.412;9.730;2023-08-21T05:28:16;11.30;;;6.85;;
48317;SDS011;34127;47.412;9.730;2023-08-21T05:30:42;9.25;;;6.85;;
48317;SDS011;34127;47.412;9.730;2023-08-21T05:33:08;11.35;;;6.15;;
48317;SDS011;34127;47.412;9.730;2023-08-21T05:35:35;16.02;;;6.85;;
48317;SDS011;34127;47.412;9.730;2023-08-21T05:38:07;13.80;;;7.18;;
48317;SDS011;34127;47.412;9.730;2023-08-21T05:40:33;12.88;;;6.72;;
48317;SDS011;34127;47.412;9.730;2023-08-21T05:43:00;19.15;;;6.95;;
48317;SDS011;34127;47.412;9.730;2023-08-21T05:45:26;10.98;;;6.93;;
48317;SDS011;34127;47.412;9.730;2023-08-21T05:47:52;9.00;;;7.30;;
48317;SDS011;34127;47.412;9.730;2023-08-21T05:50:18;20.30;;;7.05;;
48317;SDS011;34127;47.412;9.730;2023-08-21T05:52:44;17.50;;;7.20;;
48317;SDS011;34127;47.412;9.730;2023-08-21T05:55:10;12.45;;;7.10;;
48317;SDS011;34127;47.412;9.730;2023-08-21T05:57:37;16.27;;;6.93;;
48317;SDS011;34127;47.412;9.730;2023-08-21T06:00:03;14.00;;;6.90;;
48317;SDS011;34127;47.412;9.730;2023-08-21T06:02:31;13.70;;;6.95;;
48317;SDS011;34127;47.412;9.730;2023-08-21T06:05:00;12.57;;;5.78;;
48317;SDS011;34127;47.412;9.730;2023-08-21T06:07:27;10.93;;;6.00;;
48317;SDS011;34127;47.412;9.730;2023-08-21T06:09:53;15.25;;;6.95;;
48317;SDS011;34127;47.412;9.730;2023-08-21T06:12:21;19.80;;;8.48;;
48317;SDS011;34127;47.412;9.730;2023-08-21T06:14:48;16.08;;;8.30;;
48317;SDS011;34127;47.412;9.730;2023-08-21T06:17:14;23.17;;;8.75;;
48317;SDS011;34127;47.412;9.730;2023-08-21T06:19:40;16.25;;;7.53;;
48317;SDS011;34127;47.412;9.730;2023-08-21T06:22:07;13.38;;;8.57;;
48317;SDS011;34127;47.412;9.730;2023-08-21T06:24:33;20.00;;;9.40;;
48317;SDS011;34127;47.412;9.730;2023-08-21T06:26:59;13.85;;;7.30;;
48317;SDS011;34127;47.412;9.730;2023-08-21T06:29:26;12.55;;;7.32;;
48317;SDS011;34127;47.412;9.730;2023-08-21T06:31:53;11.20;;;7.50;;
48317;SDS011;34127;47.412;9.730;2023-08-21T06:34:19;12.20;;;6.82;;
48317;SDS011;34127;47.412;9.730;2023-08-21T06:36:45;14.57;;;6.57;;
48317;SDS011;34127;47.412;9.730;2023-08-21T06:39:11;12.80;;;6.40;;
48317;SDS011;34127;47.412;9.730;2023-08-21T06:41:37;8.27;;;5.95;;
48317;SDS011;34127;47.412;9.730;2023-08-21T06:44:04;10.10;;;6.10;;
48317;SDS011;34127;47.412;9.730;2023-08-21T06:46:30;11.23;;;6.05;;
48317;SDS011;34127;47.412;9.730;2023-08-21T06:48:57;11.30;;;5.60;;
48317;SDS011;34127;47.412;9.730;2023-08-21T06:51:23;11.30;;;6.03;;
48317;SDS011;34127;47.412;9.730;2023-08-21T06:53:49;12.18;;;6.30;;
48317;SDS011;34127;47.412;9.730;2023-08-21T06:56:15;12.35;;;6.78;;
48317;SDS011;34127;47.412;9.730;2023-08-21T06:58:42;10.88;;;5.80;;
48317;SDS011;34127;47.412;9.730;2023-08-21T07:01:08;12.07;;;6.07;;
48317;SDS011;34127;47.412;9.730;2023-08-21T07:03:35;10.48;;;6.75;;
48317;SDS011;34127;47.412;9.730;2023-08-21T07:06:01;10.80;;;6.13;;
48317;SDS011;34127;47.412;9.730;2023-08-21T07:08:28;11.63;;;6.25;;
48317;SDS011;34127;47.412;9.730;2023-08-21T07:10:54;15.13;;;7.53;;
48317;SDS011;34127;47.412;9.730;2023-08-21T07:13:20;10.05;;;6.07;;
48317;SDS011;34127;47.412;9.730;2023-08-21T07:15:47;10.82;;;6.50;;
48317;SDS011;34127;47.412;9.730;2023-08-21T07:18:14;9.88;;;6.82;;
48317;SDS011;34127;47.412;9.730;2023-08-21T07:20:40;11.20;;;5.93;;
48317;SDS011;34127;47.412;9.730;2023-08-21T07:23:06;9.95;;;6.50;;
48317;SDS011;34127;47.412;9.730;2023-08-21T07:25:33;9.57;;;5.93;;
48317;SDS011;34127;47.412;9.730;2023-08-21T07:27:59;11.18;;;6.30;;
48317;SDS011;34127;47.412;9.730;2023-08-21T07:30:25;11.45;;;5.90;;
48317;SDS011;34127;47.412;9.730;2023-08-21T07:32:52;8.60;;;5.65;;
48317;SDS011;34127;47.412;9.730;2023-08-21T07:35:19;7.38;;;5.68;;
48317;SDS011;34127;47.412;9.730;2023-08-21T07:37:45;12.13;;;6.30;;
48317;SDS011;34127;47.412;9.730;2023-08-21T07:40:12;11.55;;;6.18;;
48317;SDS011;34127;47.412;9.730;2023-08-21T07:42:38;9.82;;;6.05;;
48317;SDS011;34127;47.412;9.730;2023-08-21T07:45:05;11.35;;;6.00;;
48317;SDS011;34127;47.412;9.730;2023-08-21T07:47:32;9.45;;;6.55;;
48317;SDS011;34127;47.412;9.730;2023-08-21T07:49:58;10.13;;;5.82;;
48317;SDS011;34127;47.412;9.730;2023-08-21T07:52:24;13.10;;;6.18;;
48317;SDS011;34127;47.412;9.730;2023-08-21T07:54:53;8.75;;;5.93;;
48317;SDS011;34127;47.412;9.730;2023-08-21T07:57:20;7.93;;;5.95;;
48317;SDS011;34127;47.412;9.730;2023-08-21T07:59:46;12.05;;;6.88;;
48317;SDS011;34127;47.412;9.730;2023-08-21T08:02:12;14.18;;;6.60;;
48317;SDS011;34127;47.412;9.730;2023-08-21T08:04:39;12.00;;;6.68;;
48317;SDS011;34127;47.412;9.730;2023-08-21T08:07:05;10.32;;;6.63;;
48317;SDS011;34127;47.412;9.730;2023-08-21T08:09:31;9.75;;;6.50;;
48317;SDS011;34127;47.412;9.730;2023-08-21T08:11:58;10.70;;;6.18;;
48317;SDS011;34127;47.412;9.730;2023-08-21T08:14:24;8.82;;;6.68;;
48317;SDS011;34127;47.412;9.730;2023-08-21T08:16:51;12.43;;;6.70;;
48317;SDS011;34127;47.412;9.730;2023-08-21T08:19:17;10.20;;;6.40;;
48317;SDS011;34127;47.412;9.730;2023-08-21T08:21:43;14.80;;;6.22;;
48317;SDS011;34127;47.412;9.730;2023-08-21T08:24:09;8.05;;;6.20;;
48317;SDS011;34127;47.412;9.730;2023-08-21T08:26:35;10.10;;;6.10;;
48317;SDS011;34127;47.412;9.730;2023-08-21T08:29:01;9.90;;;5.93;;
48317;SDS011;34127;47.412;9.730;2023-08-21T08:31:28;13.35;;;5.82;;
48317;SDS011;34127;47.412;9.730;2023-08-21T08:33:54;10.05;;;6.25;;
48317;SDS011;34127;47.412;9.730;2023-08-21T08:36:20;10.00;;;6.00;;
48317;SDS011;34127;47.412;9.730;2023-08-21T08:38:46;9.73;;;5.82;;
48317;SDS011;34127;47.412;9.730;2023-08-21T08:41:56;10.60;;;5.93;;
48317;SDS011;34127;47.412;9.730;2023-08-21T08:44:02;10.73;;;6.03;;
48317;SDS011;34127;47.412;9.730;2023-08-21T08:46:29;9.25;;;5.90;;
48317;SDS011;34127;47.412;9.730;2023-08-21T08:48:56;9.15;;;5.75;;
48317;SDS011;34127;47.412;9.730;2023-08-21T08:51:24;11.40;;;5.60;;
48317;SDS011;34127;47.412;9.730;2023-08-21T08:53:50;11.48;;;5.75;;
48317;SDS011;34127;47.412;9.730;2023-08-21T08:56:16;11.15;;;5.97;;
48317;SDS011;34127;47.412;9.730;2023-08-21T08:58:42;12.50;;;6.18;;
48317;SDS011;34127;47.412;9.730;2023-08-21T09:01:09;10.93;;;5.95;;
48317;SDS011;34127;47.412;9.730;2023-08-21T09:03:36;10.25;;;6.22;;
48317;SDS011;34127;47.412;9.730;2023-08-21T09:06:03;9.80;;;5.85;;
48317;SDS011;34127;47.412;9.730;2023-08-21T09:08:29;11.05;;;5.82;;
48317;SDS011;34127;47.412;9.730;2023-08-21T09:10:55;12.40;;;6.32;;
48317;SDS011;34127;47.412;9.730;2023-08-21T09:13:22;8.48;;;5.88;;
48317;SDS011;34127;47.412;9.730;2023-08-21T09:15:48;7.78;;;5.93;;
48317;SDS011;34127;47.412;9.730;2023-08-21T09:18:18;8.93;;;5.75;;
48317;SDS011;34127;47.412;9.730;2023-08-21T09:20:46;8.93;;;5.85;;
48317;SDS011;34127;47.412;9.730;2023-08-21T09:23:17;10.10;;;6.22;;
48317;SDS011;34127;47.412;9.730;2023-08-21T09:25:47;9.65;;;5.63;;
48317;SDS011;34127;47.412;9.730;2023-08-21T09:28:14;11.32;;;5.70;;
48317;SDS011;34127;47.412;9.730;2023-08-21T09:30:48;9.43;;;5.80;;
48317;SDS011;34127;47.412;9.730;2023-08-21T09:33:16;11.38;;;5.90;;
48317;SDS011;34127;47.412;9.730;2023-08-21T09:35:43;8.32;;;5.57;;
48317;SDS011;34127;47.412;9.730;2023-08-21T09:38:09;8.85;;;5.70;;
48317;SDS011;34127;47.412;9.730;2023-08-21T09:40:39;18.40;;;6.20;;
48317;SDS011;34127;47.412;9.730;2023-08-21T09:43:06;10.13;;;6.32;;
48317;SDS011;34127;47.412;9.730;2023-08-21T09:45:34;12.95;;;6.65;;
48317;SDS011;34127;47.412;9.730;2023-08-21T09:48:00;13.27;;;6.60;;
48317;SDS011;34127;47.412;9.730;2023-08-21T09:50:28;11.10;;;7.35;;
48317;SDS011;34127;47.412;9.730;2023-08-21T09:52:55;9.05;;;6.53;;
48317;SDS011;34127;47.412;9.730;2023-08-21T09:55:22;13.18;;;6.50;;
48317;SDS011;34127;47.412;9.730;2023-08-21T09:57:48;11.95;;;7.50;;
48317;SDS011;34127;47.412;9.730;2023-08-21T10:00:22;12.13;;;7.00;;
48317;SDS011;34127;47.412;9.730;2023-08-21T10:02:51;12.77;;;7.22;;
48317;SDS011;34127;47.412;9.730;2023-08-21T10:05:18;9.27;;;6.78;;
48317;SDS011;34127;47.412;9.730;2023-08-21T10:07:49;12.88;;;7.57;;
48317;SDS011;34127;47.412;9.730;2023-08-21T10:10:15;9.15;;;6.63;;
48317;SDS011;34127;47.412;9.730;2023-08-21T10:12:44;10.60;;;6.97;;
48317;SDS011;34127;47.412;9.730;2023-08-21T10:15:10;11.95;;;6.75;;
48317;SDS011;34127;47.412;9.730;2023-08-21T10:17:37;13.00;;;6.70;;
48317;SDS011;34127;47.412;9.730;2023-08-21T10:20:06;12.30;;;6.80;;
48317;SDS011;34127;47.412;9.730;2023-08-21T10:22:48;11.55;;;6.65;;
48317;SDS011;34127;47.412;9.730;2023-08-21T10:25:23;11.20;;;6.95;;
48317;SDS011;34127;47.412;9.730;2023-08-21T10:27:56;10.35;;;6.70;;
48317;SDS011;34127;47.412;9.730;2023-08-21T10:30:27;11.52;;;7.20;;
48317;SDS011;34127;47.412;9.730;2023-08-21T10:32:54;11.00;;;7.00;;
48317;SDS011;34127;47.412;9.730;2023-08-21T10:35:21;13.25;;;7.30;;
48317;SDS011;34127;47.412;9.730;2023-08-21T10:40:36;13.00;;;7.60;;
48317;SDS011;34127;47.412;9.730;2023-08-21T10:43:03;17.67;;;7.25;;
48317;SDS011;34127;47.412;9.730;2023-08-21T10:45:31;13.65;;;7.72;;
48317;SDS011;34127;47.412;9.730;2023-08-21T10:47:58;13.45;;;8.02;;
48317;SDS011;34127;47.412;9.730;2023-08-21T10:50:25;13.20;;;8.55;;
48317;SDS011;34127;47.412;9.730;2023-08-21T10:52:52;10.57;;;7.85;;
48317;SDS011;34127;47.412;9.730;2023-08-21T10:55:19;12.63;;;7.60;;
48317;SDS011;34127;47.412;9.730;2023-08-21T10:57:49;12.05;;;7.85;;
48317;SDS011;34127;47.412;9.730;2023-08-21T11:00:16;10.13;;;7.18;;
48317;SDS011;34127;47.412;9.730;2023-08-21T11:02:45;10.93;;;7.05;;
48317;SDS011;34127;47.412;9.730;2023-08-21T11:05:13;10.13;;;7.15;;
48317;SDS011;34127;47.412;9.730;2023-08-21T11:07:40;11.05;;;7.32;;
48317;SDS011;34127;47.412;9.730;2023-08-21T11:10:10;11.23;;;7.43;;
48317;SDS011;34127;47.412;9.730;2023-08-21T11:12:36;9.18;;;6.57;;
48317;SDS011;34127;47.412;9.730;2023-08-21T11:15:03;10.15;;;7.00;;
48317;SDS011;34127;47.412;9.730;2023-08-21T11:17:29;10.20;;;6.90;;
48317;SDS011;34127;47.412;9.730;2023-08-21T11:19:55;12.38;;;7.22;;
48317;SDS011;34127;47.412;9.730;2023-08-21T11:22:29;10.85;;;7.03;;
48317;SDS011;34127;47.412;9.730;2023-08-21T11:24:55;11.18;;;7.35;;
48317;SDS011;34127;47.412;9.730;2023-08-21T11:27:25;13.48;;;6.90;;
48317;SDS011;34127;47.412;9.730;2023-08-21T11:29:51;13.73;;;7.18;;
48317;SDS011;34127;47.412;9.730;2023-08-21T11:32:18;10.15;;;6.93;;
48317;SDS011;34127;47.412;9.730;2023-08-21T11:34:56;11.38;;;7.53;;
48317;SDS011;34127;47.412;9.730;2023-08-21T11:37:23;11.35;;;7.35;;
48317;SDS011;34127;47.412;9.730;2023-08-21T11:39:53;14.60;;;7.70;;
48317;SDS011;34127;47.412;9.730;2023-08-21T11:42:20;14.02;;;7.53;;
48317;SDS011;34127;47.412;9.730;2023-08-21T11:44:51;10.32;;;7.13;;
48317;SDS011;34127;47.412;9.730;2023-08-21T11:47:18;10.73;;;6.97;;
48317;SDS011;34127;47.412;9.730;2023-08-21T11:49:44;10.32;;;7.05;;
48317;SDS011;34127;47.412;9.730;2023-08-21T11:52:12;13.50;;;7.65;;
48317;SDS011;34127;47.412;9.730;2023-08-21T11:54:39;11.15;;;6.97;;
48317;SDS011;34127;47.412;9.730;2023-08-21T11:57:12;10.70;;;7.28;;
48317;SDS011;34127;47.412;9.730;2023-08-21T11:59:39;12.23;;;6.95;;
48317;SDS011;34127;47.412;9.730;2023-08-21T12:02:19;9.10;;;6.82;;
48317;SDS011;34127;47.412;9.730;2023-08-21T12:07:20;8.68;;;7.20;;
48317;SDS011;34127;47.412;9.730;2023-08-21T12:09:46;10.30;;;6.40;;
48317;SDS011;34127;47.412;9.730;2023-08-21T12:12:15;10.25;;;7.28;;
48317;SDS011;34127;47.412;9.730;2023-08-21T12:14:41;13.57;;;6.93;;
48317;SDS011;34127;47.412;9.730;2023-08-21T12:17:08;10.48;;;6.78;;
48317;SDS011;34127;47.412;9.730;2023-08-21T12:19:34;11.18;;;7.15;;
48317;SDS011;34127;47.412;9.730;2023-08-21T12:22:00;9.60;;;6.72;;
48317;SDS011;34127;47.412;9.730;2023-08-21T12:24:27;10.82;;;6.40;;
48317;SDS011;34127;47.412;9.730;2023-08-21T12:26:53;10.30;;;5.40;;
48317;SDS011;34127;47.412;9.730;2023-08-21T12:29:20;9.75;;;6.30;;
48317;SDS011;34127;47.412;9.730;2023-08-21T12:31:47;10.90;;;6.07;;
48317;SDS011;34127;47.412;9.730;2023-08-21T12:34:13;8.68;;;5.53;;
48317;SDS011;34127;47.412;9.730;2023-08-21T12:36:39;12.13;;;6.10;;
48317;SDS011;34127;47.412;9.730;2023-08-21T12:39:06;10.75;;;5.97;;
48317;SDS011;34127;47.412;9.730;2023-08-21T12:41:32;9.30;;;5.38;;
48317;SDS011;34127;47.412;9.730;2023-08-21T12:43:59;7.93;;;5.50;;
48317;SDS011;34127;47.412;9.730;2023-08-21T12:46:29;8.65;;;5.85;;
48317;SDS011;34127;47.412;9.730;2023-08-21T12:48:58;13.85;;;6.30;;
48317;SDS011;34127;47.412;9.730;2023-08-21T12:51:26;11.38;;;5.80;;
48317;SDS011;34127;47.412;9.730;2023-08-21T12:53:54;8.95;;;6.00;;
48317;SDS011;34127;47.412;9.730;2023-08-21T12:56:20;11.18;;;6.45;;
48317;SDS011;34127;47.412;9.730;2023-08-21T12:58:47;9.20;;;5.45;;
48317;SDS011;34127;47.412;9.730;2023-08-21T13:01:13;10.77;;;5.25;;
48317;SDS011;34127;47.412;9.730;2023-08-21T13:03:43;11.82;;;6.63;;
48317;SDS011;34127;47.412;9.730;2023-08-21T13:06:10;10.15;;;5.90;;
48317;SDS011;34127;47.412;9.730;2023-08-21T13:08:36;12.27;;;5.93;;
48317;SDS011;34127;47.412;9.730;2023-08-21T13:11:02;11.18;;;5.90;;
48317;SDS011;34127;47.412;9.730;2023-08-21T13:13:30;8.68;;;5.40;;
48317;SDS011;34127;47.412;9.730;2023-08-21T13:15:56;9.63;;;5.57;;
48317;SDS011;34127;47.412;9.730;2023-08-21T13:18:23;8.90;;;4.40;;
48317;SDS011;34127;47.412;9.730;2023-08-21T13:20:49;7.45;;;4.70;;
48317;SDS011;34127;47.412;9.730;2023-08-21T13:23:16;11.65;;;4.85;;
48317;SDS011;34127;47.412;9.730;2023-08-21T13:25:45;10.93;;;5.22;;
48317;SDS011;34127;47.412;9.730;2023-08-21T13:28:15;15.38;;;4.95;;
48317;SDS011;34127;47.412;9.730;2023-08-21T13:30:42;10.98;;;5.38;;
48317;SDS011;34127;47.412;9.730;2023-08-21T13:33:08;10.02;;;5.40;;
48317;SDS011;34127;47.412;9.730;2023-08-21T13:35:34;10.07;;;5.22;;
48317;SDS011;34127;47.412;9.730;2023-08-21T13:38:00;12.38;;;5.50;;
48317;SDS011;34127;47.412;9.730;2023-08-21T13:40:27;8.55;;;5.15;;
48317;SDS011;34127;47.412;9.730;2023-08-21T13:42:53;13.57;;;5.70;;
48317;SDS011;34127;47.412;9.730;2023-08-21T13:45:20;12.15;;;5.88;;
48317;SDS011;34127;47.412;9.730;2023-08-21T13:47:47;8.93;;;6.00;;
48317;SDS011;34127;47.412;9.730;2023-08-21T13:50:15;9.85;;;5.35;;
48317;SDS011;34127;47.412;9.730;2023-08-21T13:52:41;10.77;;;5.57;;
48317;SDS011;34127;47.412;9.730;2023-08-21T13:55:08;11.68;;;5.32;;
48317;SDS011;34127;47.412;9.730;2023-08-21T13:57:36;12.23;;;5.35;;
48317;SDS011;34127;47.412;9.730;2023-08-21T14:00:03;8.68;;;5.30;;
48317;SDS011;34127;47.412;9.730;2023-08-21T14:02:35;8.60;;;5.43;;
48317;SDS011;34127;47.412;9.730;2023-08-21T14:05:02;13.45;;;6.13;;
48317;SDS011;34127;47.412;9.730;2023-08-21T14:07:32;7.72;;;5.35;;
48317;SDS011;34127;47.412;9.730;2023-08-21T14:09:58;10.40;;;5.78;;
48317;SDS011;34127;47.412;9.730;2023-08-21T14:12:25;11.55;;;5.60;;
48317;SDS011;34127;47.412;9.730;2023-08-21T14:14:51;8.88;;;5.53;;
48317;SDS011;34127;47.412;9.730;2023-08-21T14:17:17;8.57;;;5.60;;
48317;SDS011;34127;47.412;9.730;2023-08-21T14:19:44;9.98;;;5.50;;
48317;SDS011;34127;47.412;9.730;2023-08-21T14:22:10;7.88;;;5.30;;
48317;SDS011;34127;47.412;9.730;2023-08-21T14:24:36;13.40;;;5.97;;
48317;SDS011;34127;47.412;9.730;2023-08-21T14:27:02;11.13;;;5.80;;
48317;SDS011;34127;47.412;9.730;2023-08-21T14:29:28;7.82;;;5.43;;
48317;SDS011;34127;47.412;9.730;2023-08-21T14:31:54;11.25;;;6.07;;
48317;SDS011;34127;47.412;9.730;2023-08-21T14:34:22;10.23;;;5.88;;
48317;SDS011;34127;47.412;9.730;2023-08-21T14:36:48;9.98;;;5.80;;
48317;SDS011;34127;47.412;9.730;2023-08-21T14:39:14;10.02;;;5.30;;
48317;SDS011;34127;47.412;9.730;2023-08-21T14:41:41;10.98;;;5.70;;
48317;SDS011;34127;47.412;9.730;2023-08-21T14:44:08;8.85;;;6.28;;